Beaukiss, Texas
Current Conditions -  °F | °C
As of 6:55 AM on Thursday 27 Nov 2014 (Local Time) from KEDC Reporting Station
Clear Clear  
Wind Chill: 37°   Ceiling: Unl
Heat Index: 43°   Visibility: 10mi
Dew Point: 34°   Wind: 10mph
Humidity: 70%   Direction: 10°N
Pressure: 30.49"   Gusts: NA
Location:  30.2988°N, 97.3874°W
Report Text: KEDC 271255Z AUTO 01009KT 10SM CLR 06/01 A3049 RMK AO2
Loading
Personal Weather Stations






























Interactive Weather Map New forecast layout! Learn more

10-Day Weather Forecast

Advertisements
Track Severe Weather on mobile